This is the latest recevied weather packets stored in our database for station/object KB3FCJ-2. If no packets are shown the sender has not sent any weather packets the latest 1 day(s).
| Time | Temp. | Humidity | Pressure | Rain* | Wind** | Luminosity | Snow |
|---|---|---|---|---|---|---|---|
| 1778096135 | 18.89° C | 87% | 639.2 hPa | 0 mm | - | - | - |
| 1778094335 | 17.22° C | 91% | 621.6 hPa | 0 mm | - | - | - |
| 1778092900 | 16.67° C | 91% | 826.3 hPa | 0 mm | - | - | - |
| 1778091700 | 16.67° C | 92% | 826.3 hPa | 0 mm | - | - | - |
| 1778090847 | 16.11° C | 93% | 826.3 hPa | 0 mm | - | - | - |
| 1778089647 | 16.11° C | 93% | 826.3 hPa | 0 mm | - | - | - |
| 1778087592 | 16.11° C | 94% | 826.3 hPa | 0 mm | - | - | - |
| 1778086392 | 16.11° C | 94% | 826.3 hPa | 0 mm | - | - | - |
| 1778084345 | 16.11° C | 95% | 826.3 hPa | 0.51 mm | - | - | - |
| 1778082912 | 15.56° C | 94% | 826.3 hPa | 1.02 mm | - | - | - |
| 1778081113 | 16.11° C | 93% | 826.3 hPa | 1.02 mm | - | - | - |
| 1778079825 | 16.11° C | 91% | 826.3 hPa | 1.02 mm | - | - | - |
| 1778078625 | 16.11° C | 90% | 826.3 hPa | 0.76 mm | - | - | - |
| 1778078026 | 16.11° C | 89% | 826.3 hPa | 0.51 mm | - | - | - |
| 1778075382 | 17.78° C | 81% | 826.3 hPa | 0 mm | - | - | - |
| 1778074783 | 17.78° C | 81% | 826.3 hPa | 0 mm | - | - | - |
| 1778073582 | 17.78° C | 82% | 1096.4 hPa | 0 mm | - | - | - |
| 1778071536 | 17.78° C | 80% | 1096.4 hPa | 0 mm | - | - | - |
| 1778069487 | 18.33° C | 79% | 1096.4 hPa | 0 mm | - | - | - |
| 1778068886 | 17.78° C | 79% | 1096.4 hPa | 0 mm | - | - | - |
| 1778068287 | 18.33° C | 80% | 844.6 hPa | 0 mm | - | - | - |
| 1778066842 | 17.78° C | 80% | 844.6 hPa | 0 mm | - | - | - |
| 1778064797 | 17.78° C | 80% | 844.6 hPa | 0 mm | - | - | - |
| 1778063597 | 17.78° C | 80% | 844.6 hPa | 0 mm | - | - | - |
| 1778061550 | 17.22° C | 80% | 844.6 hPa | 0 mm | - | - | - |
* Rain latest hour (hover to see other rain measurements)
** Current wind speed in m/s (hover to see current wind gust speed)